Time;durP1;ratioP1;P1;durP2;ratioP2;P2;SDS_P1;SDS_P2;PMS_P1;PMS_P2;Temp;Humidity;BMP_temperature;BMP_pressure;BME280_temperature;BME280_humidity;BME280_pressure;Samples;Min_cycle;Max_cycle;Signal;HPM_P1;HPM_P2
2023/01/23 00:01:29;;;;;;;41.65;14.52;;;;;;;2.55;99.71;97401.84;5032854;28;20072;-56
2023/01/23 00:03:59;;;;;;;69.90;14.00;;;;;;;2.83;96.83;97393.56;5028325;28;20070;-55
2023/01/23 00:06:28;;;;;;;85.40;16.92;;;;;;;1.66;100.00;97405.84;5028899;28;20088;-56
2023/01/23 00:08:57;;;;;;;88.18;13.68;;;;;;;2.51;100.00;97388.13;5027999;28;20471;-58
2023/01/23 00:11:27;;;;;;;74.80;16.38;;;;;;;2.10;100.00;97398.69;5030253;28;20100;-55
2023/01/23 00:13:56;;;;;;;65.00;16.70;;;;;;;1.86;100.00;97402.38;5037776;28;20081;-57
2023/01/23 00:16:26;;;;;;;30.52;14.95;;;;;;;1.66;100.00;97418.84;5027315;28;20077;-53
2023/01/23 00:18:55;;;;;;;29.88;15.23;;;;;;;1.37;100.00;97428.72;5030835;28;20076;-59
2023/01/23 00:21:27;;;;;;;35.63;16.30;;;;;;;1.39;100.00;97429.50;5028084;28;20088;-58
2023/01/23 00:23:57;;;;;;;32.05;15.52;;;;;;;1.61;100.00;97425.97;5024983;28;20081;-58
2023/01/23 00:26:27;;;;;;;27.83;14.85;;;;;;;1.80;100.00;97426.06;5034419;28;20084;-53
2023/01/23 00:28:56;;;;;;;41.72;14.60;;;;;;;1.56;100.00;97422.75;5035861;28;20083;-59
2023/01/23 00:31:26;;;;;;;32.80;13.57;;;;;;;1.73;100.00;97422.03;5019938;28;20707;-56
2023/01/23 00:33:55;;;;;;;42.65;15.75;;;;;;;1.72;100.00;97430.72;5028114;28;20073;-55
2023/01/23 00:36:28;;;;;;;40.53;17.17;;;;;;;1.26;100.00;97436.13;5028165;28;20085;-57
2023/01/23 00:38:57;;;;;;;60.00;18.17;;;;;;;0.96;100.00;97433.00;5026279;28;20544;-56
2023/01/23 00:41:25;;;;;;;67.88;18.63;;;;;;;1.19;100.00;97438.13;5022560;28;20134;-59
2023/01/23 00:43:54;;;;;;;61.13;19.83;;;;;;;1.76;100.00;97432.31;5027286;28;20089;-55
2023/01/23 00:46:23;;;;;;;41.90;17.80;;;;;;;1.93;100.00;97426.34;5027788;28;20084;-56
2023/01/23 00:48:51;;;;;;;44.85;16.65;;;;;;;1.62;100.00;97435.50;5024689;28;20085;-60
2023/01/23 00:51:20;;;;;;;57.05;16.17;;;;;;;1.72;100.00;97436.78;5035959;28;20096;-57
2023/01/23 00:53:50;;;;;;;36.03;17.52;;;;;;;1.92;100.00;97435.06;5020695;28;20100;-55
2023/01/23 00:56:19;;;;;;;39.40;18.05;;;;;;;2.29;100.00;97432.50;5027297;28;20557;-56
2023/01/23 00:58:47;;;;;;;41.58;19.02;;;;;;;2.65;100.00;97425.66;5032004;28;20073;-59
2023/01/23 01:01:16;;;;;;;40.28;18.05;;;;;;;2.47;100.00;97432.56;5031217;28;20831;-56
2023/01/23 01:03:45;;;;;;;35.25;16.77;;;;;;;2.18;100.00;97442.56;5026559;28;20084;-57
2023/01/23 01:06:15;;;;;;;35.20;15.90;;;;;;;2.48;100.00;97444.66;5030777;28;20080;-57
2023/01/23 01:08:43;;;;;;;34.92;18.02;;;;;;;2.61;100.00;97446.66;5030040;28;20100;-59
2023/01/23 01:11:12;;;;;;;33.80;16.42;;;;;;;2.58;100.00;97445.94;5022309;28;20088;-58
2023/01/23 01:13:41;;;;;;;31.03;15.87;;;;;;;2.97;100.00;97438.00;5030549;28;20081;-59
2023/01/23 01:16:10;;;;;;;32.38;16.30;;;;;;;2.49;100.00;97444.63;5021479;28;20507;-57
2023/01/23 01:18:39;;;;;;;27.88;14.65;;;;;;;2.43;100.00;97450.09;5027400;28;20089;-57
2023/01/23 01:21:08;;;;;;;28.38;15.55;;;;;;;2.46;100.00;97449.97;5025193;28;20077;-59
2023/01/23 01:23:38;;;;;;;28.47;16.03;;;;;;;3.04;100.00;97447.22;5023463;28;20492;-60
2023/01/23 01:26:07;;;;;;;30.90;15.93;;;;;;;2.75;100.00;97451.22;5035111;28;20518;-56
2023/01/23 01:28:39;;;;;;;28.60;15.98;;;;;;;3.03;100.00;97449.91;5031769;28;20127;-55
2023/01/23 01:31:10;;;;;;;26.52;14.55;;;;;;;3.27;100.00;97446.13;5033256;28;20088;-57
2023/01/23 01:33:39;;;;;;;27.40;15.23;;;;;;;2.75;100.00;97451.22;5024477;28;20086;-58
2023/01/23 01:36:09;;;;;;;25.23;14.45;;;;;;;3.14;100.00;97438.97;5034562;28;20084;-54
2023/01/23 01:38:38;;;;;;;27.13;16.02;;;;;;;3.01;100.00;97444.75;5027007;28;20092;-57
2023/01/23 01:41:07;;;;;;;27.02;15.18;;;;;;;2.82;100.00;97437.00;5027591;28;20081;-57
2023/01/23 01:43:37;;;;;;;25.58;15.32;;;;;;;2.90;100.00;97433.19;5025613;28;20077;-57
2023/01/23 01:46:21;;;;;;;28.13;15.48;;;;;;;2.96;100.00;97431.13;5032126;28;20095;-57
2023/01/23 01:49:04;;;;;;;27.48;14.95;;;;;;;2.88;100.00;97427.19;5024258;28;20088;-58
2023/01/23 01:51:36;;;;;;;29.80;14.88;;;;;;;3.14;100.00;97418.13;5030743;28;20080;-58
2023/01/23 01:54:09;;;;;;;30.80;15.45;;;;;;;3.60;100.00;97419.25;5025571;28;20089;-57
2023/01/23 01:56:40;;;;;;;29.42;15.95;;;;;;;3.96;99.71;97413.91;5034343;28;20083;-56
2023/01/23 01:59:11;;;;;;;30.75;16.00;;;;;;;3.95;95.38;97414.81;5034359;28;20606;-59
2023/01/23 02:01:40;;;;;;;31.15;15.80;;;;;;;3.03;100.00;97431.69;5025700;28;20081;-52
2023/01/23 02:04:09;;;;;;;32.03;17.42;;;;;;;3.21;100.00;97422.94;5027704;28;20084;-58
2023/01/23 02:06:38;;;;;;;29.33;15.85;;;;;;;3.19;100.00;97416.94;5035557;28;20091;-56
2023/01/23 02:09:10;;;;;;;29.90;15.30;;;;;;;2.99;100.00;97417.91;5034649;28;20088;-56
2023/01/23 02:11:39;;;;;;;28.73;16.02;;;;;;;3.44;100.00;97410.50;5032986;28;20078;-57
2023/01/23 02:14:07;;;;;;;30.08;16.00;;;;;;;3.53;100.00;97418.72;5036425;28;20077;-60
2023/01/23 02:16:39;;;;;;;31.35;16.90;;;;;;;3.94;100.00;97412.31;5035346;28;20080;-62
2023/01/23 02:19:28;;;;;;;30.42;15.68;;;;;;;3.81;100.00;97409.47;5038574;28;20073;-57
2023/01/23 02:22:03;;;;;;;28.60;16.55;;;;;;;4.16;100.00;97402.41;5039374;28;20085;-58
2023/01/23 02:24:37;;;;;;;31.88;16.05;;;;;;;4.72;94.09;97395.03;5031977;28;20056;-55
2023/01/23 02:27:07;;;;;;;30.17;16.42;;;;;;;4.49;90.33;97396.31;5033314;28;20077;-56
2023/01/23 02:29:43;;;;;;;27.63;15.70;;;;;;;3.89;98.93;97402.13;5034946;28;20081;-55
2023/01/23 02:32:12;;;;;;;25.50;14.85;;;;;;;3.40;100.00;97411.59;5029256;28;20149;-59
2023/01/23 02:34:41;;;;;;;27.25;15.68;;;;;;;3.67;100.00;97414.56;5029907;28;20087;-60
2023/01/23 02:37:09;;;;;;;27.02;15.60;;;;;;;3.67;100.00;97404.16;5041531;28;20487;-55
2023/01/23 02:39:38;;;;;;;25.98;14.38;;;;;;;3.55;100.00;97406.47;5032627;28;20514;-52
2023/01/23 02:42:08;;;;;;;28.88;15.48;;;;;;;3.07;100.00;97418.41;5036273;28;20080;-57
2023/01/23 02:44:36;;;;;;;27.10;14.57;;;;;;;3.04;100.00;97415.13;5037277;28;20092;-59
2023/01/23 02:47:10;;;;;;;30.10;16.00;;;;;;;3.40;100.00;97415.03;5028532;28;20081;-55
2023/01/23 02:49:39;;;;;;;27.85;15.05;;;;;;;2.87;100.00;97412.47;5038959;28;20081;-58
2023/01/23 02:52:08;;;;;;;26.70;15.18;;;;;;;3.17;100.00;97416.22;5034312;28;20473;-56
2023/01/23 02:54:38;;;;;;;27.88;15.38;;;;;;;3.31;100.00;97405.09;5031283;28;20096;-58
2023/01/23 02:57:08;;;;;;;29.38;15.95;;;;;;;3.09;100.00;97403.53;5030897;28;20084;-51
2023/01/23 03:02:22;;;;;;;25.20;14.38;;;;;;;3.23;100.00;97402.00;5031822;28;20081;-56
2023/01/23 03:04:51;;;;;;;25.42;14.85;;;;;;;3.84;100.00;97404.09;5034075;28;20175;-61
2023/01/23 03:07:19;;;;;;;26.95;15.68;;;;;;;4.31;100.00;97405.16;5038801;28;20584;-57
2023/01/23 03:09:47;;;;;;;27.23;15.27;;;;;;;4.19;100.00;97409.25;5035265;28;20107;-58
2023/01/23 03:12:17;;;;;;;26.38;15.25;;;;;;;4.08;100.00;97422.03;5035715;28;20092;-60
2023/01/23 03:14:47;;;;;;;27.95;15.60;;;;;;;4.09;100.00;97424.53;5032198;28;20061;-56
2023/01/23 03:17:15;;;;;;;30.55;15.98;;;;;;;4.62;98.74;97414.75;5029821;28;20465;-59
2023/01/23 03:19:43;;;;;;;29.30;15.90;;;;;;;4.68;94.69;97423.09;5024285;28;20077;-56
2023/01/23 03:22:12;;;;;;;29.10;15.27;;;;;;;4.27;100.00;97426.19;5024456;28;20085;-60
2023/01/23 03:24:40;;;;;;;31.08;15.23;;;;;;;4.28;100.00;97421.81;5024827;28;20077;-59
2023/01/23 03:27:08;;;;;;;26.17;15.27;;;;;;;4.39;100.00;97414.22;5034831;28;20179;-55
2023/01/23 03:32:39;;;;;;;30.67;16.25;;;;;;;4.47;100.00;97419.03;4965683;28;20101;-58
2023/01/23 03:35:12;;;;;;;30.23;15.95;;;;;;;4.16;100.00;97425.06;4966684;28;20090;-56
2023/01/23 03:37:41;;;;;;;29.30;16.00;;;;;;;4.26;100.00;97407.97;4991857;28;20092;-59
2023/01/23 03:43:00;;;;;;;29.38;15.55;;;;;;;4.22;100.00;97407.31;5026379;28;20521;-59
2023/01/23 03:45:31;;;;;;;28.40;15.57;;;;;;;4.70;100.00;97404.72;5029626;28;20088;-58
2023/01/23 03:47:59;;;;;;;28.17;15.60;;;;;;;5.17;95.21;97415.13;5027744;28;20100;-60
2023/01/23 03:50:27;;;;;;;28.25;14.85;;;;;;;5.15;90.87;97405.66;5026902;28;20113;-61
2023/01/23 03:52:56;;;;;;;29.10;15.85;;;;;;;4.83;92.10;97417.97;5025264;28;20093;-57
2023/01/23 03:55:24;;;;;;;27.73;15.02;;;;;;;4.79;98.66;97419.91;5026520;28;20452;-58
2023/01/23 03:57:52;;;;;;;29.50;15.52;;;;;;;5.00;93.66;97415.25;5032065;28;20085;-56
2023/01/23 04:00:21;;;;;;;26.42;15.05;;;;;;;4.82;92.80;97421.47;5037182;28;20085;-57
2023/01/23 04:02:51;;;;;;;28.92;15.98;;;;;;;5.20;88.11;97412.34;5034529;28;20084;-62
2023/01/23 04:05:19;;;;;;;30.30;16.10;;;;;;;5.08;88.98;97413.03;5029231;28;20076;-54
2023/01/23 04:07:47;;;;;;;28.85;15.75;;;;;;;5.18;89.50;97421.19;5031312;28;24069;-56
2023/01/23 04:10:16;;;;;;;29.55;16.40;;;;;;;5.36;86.72;97414.88;5032922;28;20123;-57
2023/01/23 04:12:44;;;;;;;29.80;16.08;;;;;;;5.65;82.83;97418.44;5028292;28;20088;-55
2023/01/23 04:15:13;;;;;;;29.10;16.05;;;;;;;5.71;81.00;97422.44;5027436;28;20085;-56
2023/01/23 04:17:41;;;;;;;29.88;16.05;;;;;;;4.93;91.26;97422.59;5027000;28;20081;-55
2023/01/23 04:20:12;;;;;;;31.75;16.92;;;;;;;5.55;89.55;97424.31;5027493;28;20108;-51
2023/01/23 04:22:41;;;;;;;30.75;16.25;;;;;;;5.59;85.19;97424.03;5024162;28;20103;-57
2023/01/23 04:25:10;;;;;;;28.40;16.15;;;;;;;5.48;85.09;97427.28;5030018;28;20096;-55
2023/01/23 04:27:38;;;;;;;29.98;16.13;;;;;;;5.44;86.65;97436.22;5020321;28;20108;-54
2023/01/23 04:30:08;;;;;;;32.53;16.98;;;;;;;5.27;87.27;97433.75;5025882;28;20081;-57
2023/01/23 04:32:36;;;;;;;30.57;17.20;;;;;;;5.13;91.32;97433.69;5027732;28;20096;-56
2023/01/23 04:35:05;;;;;;;30.67;16.50;;;;;;;5.36;93.12;97432.34;5025579;28;20088;-59
2023/01/23 04:37:35;;;;;;;27.95;14.90;;;;;;;5.54;92.35;97426.09;5029921;28;20080;-59
2023/01/23 04:40:03;;;;;;;32.08;17.70;;;;;;;5.60;92.10;97425.69;5027211;28;20077;-55
2023/01/23 04:42:32;;;;;;;33.75;17.88;;;;;;;5.73;91.46;97423.22;5025566;28;20104;-60
2023/01/23 04:45:00;;;;;;;33.15;16.63;;;;;;;5.64;93.28;97424.59;5025498;28;20100;-58
2023/01/23 04:47:28;;;;;;;34.67;17.95;;;;;;;5.62;95.03;97417.78;5026397;28;20556;-60
2023/01/23 04:49:57;;;;;;;34.08;17.45;;;;;;;5.81;95.57;97414.91;5029129;28;20084;-58
2023/01/23 04:52:25;;;;;;;32.55;17.00;;;;;;;5.92;94.53;97422.97;5019400;28;20077;-58
2023/01/23 04:54:55;;;;;;;34.92;18.48;;;;;;;5.76;95.46;97430.88;5021161;28;20084;-52
2023/01/23 04:57:23;;;;;;;36.33;19.23;;;;;;;5.76;98.14;97438.72;5024740;28;20088;-58
2023/01/23 04:59:52;;;;;;;37.40;19.02;;;;;;;5.67;99.30;97437.50;5024050;28;20073;-59
2023/01/23 05:02:20;;;;;;;35.92;18.13;;;;;;;5.23;100.00;97434.84;5018094;28;20088;-58
2023/01/23 05:04:48;;;;;;;37.30;18.23;;;;;;;5.56;100.00;97433.81;5020393;28;20097;-58
2023/01/23 05:07:17;;;;;;;38.20;19.63;;;;;;;5.53;100.00;97431.38;5020858;28;20089;-59
2023/01/23 05:09:45;;;;;;;37.85;20.55;;;;;;;5.77;100.00;97432.56;5023492;28;20454;-60
2023/01/23 05:12:14;;;;;;;39.08;19.25;;;;;;;5.59;100.00;97436.28;5028108;28;20092;-57
2023/01/23 05:14:43;;;;;;;41.28;21.70;;;;;;;5.31;100.00;97444.88;5022642;28;20481;-60
2023/01/23 05:17:11;;;;;;;41.28;19.98;;;;;;;5.29;100.00;97442.31;5026289;28;20096;-59
2023/01/23 05:19:39;;;;;;;39.83;18.58;;;;;;;5.40;100.00;97439.09;5028376;28;20092;-59
2023/01/23 05:22:08;;;;;;;42.33;21.00;;;;;;;5.65;100.00;97443.75;5023489;28;20077;-57
2023/01/23 05:24:36;;;;;;;39.08;19.15;;;;;;;5.65;100.00;97444.59;5024907;28;20081;-57
2023/01/23 05:27:04;;;;;;;39.80;20.20;;;;;;;5.56;100.00;97454.75;5024863;28;20081;-60
2023/01/23 05:29:34;;;;;;;38.65;19.88;;;;;;;5.53;100.00;97461.00;5013653;28;20093;-60
2023/01/23 05:32:02;;;;;;;41.40;20.00;;;;;;;5.47;100.00;97463.97;5024178;28;20073;-59
2023/01/23 05:34:31;;;;;;;40.75;20.35;;;;;;;5.50;100.00;97462.94;5020737;28;21070;-56
2023/01/23 05:36:59;;;;;;;39.40;19.90;;;;;;;5.13;100.00;97468.53;5024715;28;20073;-56
2023/01/23 05:39:27;;;;;;;38.70;19.58;;;;;;;5.08;100.00;97478.38;5018791;28;20089;-59
2023/01/23 05:41:56;;;;;;;40.58;21.13;;;;;;;5.23;100.00;97480.16;5019221;28;20088;-55
2023/01/23 05:44:24;;;;;;;41.28;20.75;;;;;;;5.41;100.00;97473.03;5025333;28;20084;-59
2023/01/23 05:46:54;;;;;;;37.97;19.10;;;;;;;5.46;100.00;97478.81;5014026;28;20533;-57
2023/01/23 05:49:22;;;;;;;42.70;21.37;;;;;;;5.55;100.00;97467.00;5022476;28;20085;-61
2023/01/23 05:51:50;;;;;;;43.22;21.52;;;;;;;5.56;100.00;97466.06;5022731;28;20107;-59
2023/01/23 05:54:19;;;;;;;40.38;20.30;;;;;;;5.58;100.00;97468.59;5027481;28;20081;-57
2023/01/23 05:56:47;;;;;;;46.67;23.30;;;;;;;5.48;100.00;97463.06;5027846;28;20564;-58
2023/01/23 05:59:15;;;;;;;50.15;22.60;;;;;;;4.94;100.00;97454.78;5028056;28;20093;-57
2023/01/23 06:01:44;;;;;;;43.03;21.50;;;;;;;5.27;100.00;97454.66;5021644;28;20111;-56
2023/01/23 06:04:15;;;;;;;40.20;21.10;;;;;;;5.36;100.00;97456.75;5023229;28;20077;-57
2023/01/23 06:06:43;;;;;;;43.97;20.13;;;;;;;5.37;100.00;97460.22;5026181;28;20081;-58
2023/01/23 06:09:11;;;;;;;44.03;21.50;;;;;;;5.00;100.00;97460.50;5022867;28;20077;-59
2023/01/23 06:11:40;;;;;;;49.88;22.15;;;;;;;4.84;100.00;97464.06;5027749;28;20084;-59
2023/01/23 06:14:08;;;;;;;42.08;20.90;;;;;;;4.94;100.00;97470.47;5021783;28;20077;-59
2023/01/23 06:16:37;;;;;;;43.42;21.45;;;;;;;5.36;100.00;97461.97;5025271;28;20132;-60
2023/01/23 06:19:05;;;;;;;42.60;20.73;;;;;;;5.80;100.00;97457.72;5017032;28;20084;-55
2023/01/23 06:21:35;;;;;;;41.97;20.50;;;;;;;5.80;100.00;97466.41;5021790;28;20089;-58
2023/01/23 06:24:03;;;;;;;42.90;21.07;;;;;;;5.93;100.00;97467.41;5021889;28;20477;-54
2023/01/23 06:26:32;;;;;;;41.38;21.23;;;;;;;6.09;100.00;97469.97;5023585;28;20085;-61
2023/01/23 06:29:00;;;;;;;40.00;18.48;;;;;;;5.65;100.00;97469.94;5027601;28;20088;-60
2023/01/23 06:31:31;;;;;;;41.75;20.73;;;;;;;5.67;100.00;97481.97;5022755;28;20132;-59
2023/01/23 06:34:00;;;;;;;45.55;20.73;;;;;;;5.78;100.00;97470.03;5026935;28;20477;-58
2023/01/23 06:36:28;;;;;;;42.13;20.13;;;;;;;5.42;100.00;97479.94;5015142;28;20085;-58
2023/01/23 06:38:57;;;;;;;47.97;21.60;;;;;;;5.87;100.00;97465.09;5024586;28;20107;-60
2023/01/23 06:41:26;;;;;;;41.40;19.92;;;;;;;5.93;100.00;97466.56;5024327;28;20088;-59
2023/01/23 06:43:55;;;;;;;49.00;21.42;;;;;;;5.92;100.00;97459.63;5027148;28;20069;-57
2023/01/23 06:46:23;;;;;;;44.92;19.85;;;;;;;6.03;100.00;97462.47;5024039;28;20087;-59
2023/01/23 06:48:52;;;;;;;40.15;19.30;;;;;;;5.98;100.00;97459.25;5023908;28;20085;-59
2023/01/23 06:51:21;;;;;;;37.65;19.55;;;;;;;5.89;100.00;97454.56;5024365;28;20093;-57
2023/01/23 06:53:49;;;;;;;34.03;16.50;;;;;;;5.94;100.00;97449.91;5030223;28;20077;-61
2023/01/23 06:56:19;;;;;;;36.88;18.05;;;;;;;6.03;100.00;97465.09;5027703;28;20430;-58
2023/01/23 06:58:48;;;;;;;37.83;18.57;;;;;;;5.44;100.00;97467.63;5026183;28;20495;-60
2023/01/23 07:01:17;;;;;;;33.80;16.88;;;;;;;5.62;100.00;97470.09;5023819;28;20511;-59
2023/01/23 07:03:45;;;;;;;33.65;17.23;;;;;;;5.48;100.00;97484.81;5026465;28;20073;-59
2023/01/23 07:06:14;;;;;;;33.63;16.92;;;;;;;5.37;100.00;97481.16;5023863;28;20100;-60
2023/01/23 07:08:43;;;;;;;31.10;16.00;;;;;;;5.17;100.00;97490.13;5023965;28;20468;-56
2023/01/23 07:11:11;;;;;;;34.65;16.90;;;;;;;4.92;100.00;97490.59;5026224;28;20104;-58
2023/01/23 07:13:41;;;;;;;26.77;12.43;;;;;;;4.90;100.00;97502.94;5024751;28;20104;-57
2023/01/23 07:16:09;;;;;;;29.87;14.10;;;;;;;5.26;100.00;97494.81;5026312;28;20096;-57
2023/01/23 07:18:38;;;;;;;26.35;13.13;;;;;;;4.82;100.00;97511.19;5024945;28;20499;-57
2023/01/23 07:21:06;;;;;;;32.53;15.80;;;;;;;4.88;100.00;97512.63;5029727;28;20175;-55
2023/01/23 07:23:35;;;;;;;31.75;16.25;;;;;;;4.27;100.00;97520.19;5030355;28;20591;-58
2023/01/23 07:26:08;;;;;;;31.58;15.52;;;;;;;4.56;100.00;97527.41;5024636;28;20477;-57
2023/01/23 07:28:36;;;;;;;33.90;15.88;;;;;;;4.96;100.00;97515.69;5030211;28;20479;-56
2023/01/23 07:31:06;;;;;;;34.90;16.67;;;;;;;5.07;100.00;97521.16;5030132;28;20085;-60
2023/01/23 07:33:35;;;;;;;30.70;16.13;;;;;;;5.01;100.00;97521.47;5029635;28;20083;-54
2023/01/23 07:36:05;;;;;;;20.52;10.23;;;;;;;4.97;100.00;97514.72;5027511;28;20081;-57
2023/01/23 07:38:34;;;;;;;30.83;15.65;;;;;;;5.10;100.00;97510.53;5027597;28;20083;-58
2023/01/23 07:41:02;;;;;;;36.08;17.45;;;;;;;4.99;100.00;97518.97;5027506;28;20081;-59
2023/01/23 07:43:30;;;;;;;26.80;12.52;;;;;;;5.28;100.00;97506.03;5024890;28;20091;-59
2023/01/23 07:45:59;;;;;;;31.50;16.08;;;;;;;5.34;100.00;97502.25;5030884;28;20092;-57
2023/01/23 07:48:28;;;;;;;29.60;14.05;;;;;;;5.12;100.00;97497.34;5027305;28;20077;-58
2023/01/23 07:50:57;;;;;;;31.27;15.40;;;;;;;5.58;100.00;97494.78;5016020;28;20545;-59
2023/01/23 07:53:26;;;;;;;37.72;17.70;;;;;;;5.24;100.00;97502.75;5027559;28;20688;-57
2023/01/23 07:55:54;;;;;;;24.42;11.60;;;;;;;5.37;100.00;97509.91;5017328;28;20088;-54
2023/01/23 07:58:23;;;;;;;34.78;16.92;;;;;;;5.14;100.00;97519.88;5023721;28;20097;-59
2023/01/23 08:00:51;;;;;;;32.33;15.15;;;;;;;5.38;100.00;97517.66;5022377;28;20088;-57
2023/01/23 08:03:20;;;;;;;24.35;12.02;;;;;;;5.08;100.00;97522.81;5025304;28;20081;-56
2023/01/23 08:05:50;;;;;;;30.88;14.52;;;;;;;4.87;100.00;97508.31;5029504;28;20085;-57
2023/01/23 08:08:19;;;;;;;28.88;14.65;;;;;;;4.70;100.00;97509.22;5017194;28;20088;-59
2023/01/23 08:10:47;;;;;;;28.08;13.43;;;;;;;5.08;100.00;97512.38;5019436;28;20089;-56
2023/01/23 08:13:15;;;;;;;31.75;16.05;;;;;;;4.81;100.00;97524.34;5020606;28;20342;-57
2023/01/23 08:15:45;;;;;;;33.85;16.15;;;;;;;5.23;100.00;97519.38;5027944;28;20085;-58
2023/01/23 08:18:13;;;;;;;34.33;16.33;;;;;;;5.14;100.00;97517.25;5020507;28;20073;-58
2023/01/23 08:20:42;;;;;;;48.17;21.55;;;;;;;5.02;100.00;97527.53;5025318;28;20450;-59
2023/01/23 08:23:11;;;;;;;36.03;17.33;;;;;;;5.27;100.00;97517.44;5029415;28;20069;-57
2023/01/23 08:25:40;;;;;;;34.33;17.53;;;;;;;4.96;100.00;97518.28;5021579;28;20089;-58
2023/01/23 08:28:08;;;;;;;36.72;17.80;;;;;;;4.90;100.00;97516.84;5024354;28;20084;-58
2023/01/23 08:30:37;;;;;;;33.83;15.73;;;;;;;5.10;100.00;97509.69;5028278;28;20520;-60
2023/01/23 08:33:05;;;;;;;34.42;18.38;;;;;;;4.70;100.00;97517.06;5029772;28;20073;-56
2023/01/23 08:35:34;;;;;;;36.80;18.58;;;;;;;5.04;100.00;97515.25;5027074;28;20081;-59
2023/01/23 08:38:02;;;;;;;31.95;18.63;;;;;;;4.11;100.00;97519.28;5023455;28;20069;-57
2023/01/23 08:40:32;;;;;;;25.85;12.80;;;;;;;4.44;100.00;97510.59;5018213;28;20100;-58
2023/01/23 08:43:00;;;;;;;37.67;15.90;;;;;;;5.35;100.00;97502.13;5024939;28;20088;-60
2023/01/23 08:45:30;;;;;;;34.05;17.33;;;;;;;5.26;100.00;97507.88;5020406;28;20454;-58
2023/01/23 08:47:59;;;;;;;34.22;17.17;;;;;;;5.03;100.00;97524.03;5021382;28;20061;-60
2023/01/23 08:50:27;;;;;;;23.98;11.60;;;;;;;5.09;100.00;97524.50;5011032;28;20074;-58
2023/01/23 08:52:55;;;;;;;32.53;16.38;;;;;;;4.59;100.00;97535.09;5028394;28;20077;-57
2023/01/23 08:55:24;;;;;;;30.35;16.20;;;;;;;5.42;100.00;97513.09;5021834;28;20069;-60
2023/01/23 08:57:54;;;;;;;32.63;15.68;;;;;;;5.34;100.00;97513.53;5024057;28;20108;-58
2023/01/23 09:00:22;;;;;;;31.63;16.17;;;;;;;5.43;100.00;97512.16;5027992;28;20147;-56
2023/01/23 09:02:51;;;;;;;31.17;15.60;;;;;;;5.25;100.00;97521.88;5022466;28;23881;-60
2023/01/23 09:05:19;;;;;;;34.92;18.02;;;;;;;4.95;100.00;97524.41;5027671;28;20073;-56
2023/01/23 09:07:48;;;;;;;34.95;16.60;;;;;;;5.32;100.00;97518.00;5017362;28;20469;-56
2023/01/23 09:10:16;;;;;;;33.25;16.60;;;;;;;5.40;100.00;97518.44;5024760;28;20064;-55
2023/01/23 09:12:45;;;;;;;32.90;16.40;;;;;;;5.30;100.00;97509.41;5020800;28;20088;-57
2023/01/23 09:15:16;;;;;;;37.60;17.25;;;;;;;6.01;100.00;97510.63;5028027;28;20084;-55
2023/01/23 09:17:44;;;;;;;;;;;;;;;6.23;100.00;97528.50;5016669;28;20804;-58
2023/01/23 09:20:12;;;;;;;32.53;17.15;;;;;;;5.51;100.00;97520.44;5025893;28;19960;-59
2023/01/23 09:22:41;;;;;;;24.35;11.40;;;;;;;5.59;100.00;97526.06;5026483;28;20079;-53
2023/01/23 09:25:10;;;;;;;32.55;15.93;;;;;;;5.54;100.00;97530.75;5019042;28;20092;-58
2023/01/23 09:27:38;;;;;;;31.13;16.23;;;;;;;5.34;100.00;97520.56;5025407;28;20073;-57
2023/01/23 09:30:08;;;;;;;30.17;15.40;;;;;;;6.19;100.00;97522.59;5023472;28;20069;-58
2023/01/23 09:32:38;;;;;;;30.88;15.55;;;;;;;6.24;100.00;97517.13;5019668;28;20414;-58
2023/01/23 09:35:07;;;;;;;32.10;17.53;;;;;;;5.65;100.00;97517.03;5028810;28;20091;-56
2023/01/23 09:40:19;;;;;;;28.40;14.05;;;;;;;6.96;100.00;97489.09;5021846;28;20085;-55
2023/01/23 09:42:48;;;;;;;29.15;15.23;;;;;;;6.08;100.00;97507.53;5024033;28;20090;-59
2023/01/23 09:45:18;;;;;;;31.58;16.20;;;;;;;7.23;100.00;97487.34;5024909;28;20077;-58
2023/01/23 09:47:51;;;;;;;28.60;14.38;;;;;;;6.51;100.00;97491.88;5025103;28;20089;-58
2023/01/23 09:50:23;;;;;;;24.75;14.10;;;;;;;6.33;100.00;97511.31;5025348;28;20088;-55
2023/01/23 09:52:57;;;;;;;26.88;13.85;;;;;;;7.02;100.00;97507.91;5018321;28;20151;-56
2023/01/23 09:55:36;;;;;;;29.05;15.50;;;;;;;6.79;100.00;97511.97;5022144;28;20081;-58
2023/01/23 09:58:05;;;;;;;30.83;14.98;;;;;;;7.22;100.00;97508.41;5019648;28;20081;-57
2023/01/23 10:00:35;;;;;;;28.00;15.48;;;;;;;7.26;100.00;97502.88;5020796;28;20096;-53
2023/01/23 10:03:11;;;;;;;30.23;15.65;;;;;;;6.86;100.00;97500.16;5022059;28;20077;-58
2023/01/23 10:05:45;;;;;;;29.90;16.67;;;;;;;6.06;100.00;97514.66;5022891;28;20088;-58
2023/01/23 10:08:20;;;;;;;25.58;13.48;;;;;;;6.48;100.00;97514.78;5016457;28;20092;-60
2023/01/23 10:10:59;;;;;;;27.15;15.00;;;;;;;6.78;100.00;97505.03;5024126;28;20077;-56
2023/01/23 10:13:46;;;;;;;29.33;13.73;;;;;;;6.81;100.00;97510.09;5026421;28;20111;-55
2023/01/23 10:16:25;;;;;;;28.15;14.77;;;;;;;7.10;100.00;97497.78;5016744;28;20560;-57
2023/01/23 10:19:04;;;;;;;27.55;15.43;;;;;;;6.44;100.00;97498.41;5022721;28;20088;-57
2023/01/23 10:21:37;;;;;;;30.85;14.82;;;;;;;6.87;100.00;97488.72;5020971;28;20081;-62
2023/01/23 10:24:20;;;;;;;26.17;13.43;;;;;;;6.74;100.00;97495.66;5025648;28;20085;-55
2023/01/23 10:26:50;;;;;;;25.10;13.43;;;;;;;6.36;100.00;97503.25;5023861;28;20077;-59
2023/01/23 10:29:25;;;;;;;29.83;14.48;;;;;;;6.28;100.00;97498.50;5027490;28;20080;-59
2023/01/23 10:31:56;;;;;;;28.40;13.80;;;;;;;6.43;100.00;97491.47;5031648;28;20473;-57
2023/01/23 10:34:33;;;;;;;24.73;13.70;;;;;;;5.92;100.00;97493.66;5022797;28;20092;-57
2023/01/23 10:37:13;;;;;;;22.20;11.27;;;;;;;6.05;100.00;97488.53;5023479;28;20080;-58
2023/01/23 10:39:49;;;;;;;26.00;13.95;;;;;;;6.09;100.00;97476.94;5031151;28;20088;-60
2023/01/23 10:42:20;;;;;;;27.77;14.95;;;;;;;6.58;100.00;97480.06;5025900;28;20520;-57
2023/01/23 10:44:49;;;;;;;26.73;14.52;;;;;;;6.81;100.00;97469.91;5029234;28;20088;-58
2023/01/23 10:47:21;;;;;;;28.05;15.15;;;;;;;6.79;100.00;97471.81;5024663;28;20073;-57
2023/01/23 10:49:50;;;;;;;26.38;13.57;;;;;;;7.02;100.00;97459.84;5023671;28;20680;-54
2023/01/23 10:52:36;;;;;;;27.77;15.18;;;;;;;7.33;100.00;97454.31;5024138;28;20477;-57
2023/01/23 10:55:06;;;;;;;26.83;14.98;;;;;;;7.00;100.00;97461.75;5027417;28;20077;-54
2023/01/23 10:57:45;;;;;;;25.95;14.15;;;;;;;6.90;100.00;97456.22;5021461;28;20620;-57
2023/01/23 11:00:21;;;;;;;26.92;13.70;;;;;;;6.97;100.00;97449.66;5023633;28;20105;-57
2023/01/23 11:02:50;;;;;;;27.10;14.60;;;;;;;6.75;100.00;97462.44;5026675;28;20096;-57
2023/01/23 11:05:38;;;;;;;26.15;14.18;;;;;;;6.85;100.00;97453.91;5029399;28;20077;-55
2023/01/23 11:08:25;;;;;;;26.98;14.63;;;;;;;7.15;100.00;97434.50;5019676;28;20142;-58
2023/01/23 11:10:54;;;;;;;27.65;14.95;;;;;;;7.46;100.00;97445.63;5031153;28;20077;-58
2023/01/23 11:13:28;;;;;;;28.45;14.45;;;;;;;6.53;100.00;97448.03;5028625;28;20534;-56
2023/01/23 11:15:57;;;;;;;25.52;13.50;;;;;;;6.89;100.00;97450.16;5017884;28;20089;-59
2023/01/23 11:18:32;;;;;;;32.92;14.77;;;;;;;7.22;100.00;97429.72;5027552;28;20099;-57
2023/01/23 11:21:02;;;;;;;32.70;17.75;;;;;;;6.71;100.00;97435.59;5016830;28;20081;-58
2023/01/23 11:23:30;;;;;;;27.80;15.57;;;;;;;7.44;100.00;97423.91;5026780;28;20089;-54
2023/01/23 11:25:59;;;;;;;26.60;14.68;;;;;;;6.71;100.00;97434.72;5021681;28;20498;-56
2023/01/23 11:28:29;;;;;;;27.48;13.38;;;;;;;6.98;100.00;97425.09;5028752;28;20655;-57
2023/01/23 11:30:59;;;;;;;28.33;14.70;;;;;;;7.11;100.00;97427.78;5023835;28;20104;-57
2023/01/23 11:33:46;;;;;;;27.92;13.75;;;;;;;7.13;100.00;97423.28;5030671;28;20088;-59
2023/01/23 11:36:43;;;;;;;26.23;14.13;;;;;;;7.54;100.00;97417.94;5024014;28;20084;-61
2023/01/23 11:39:18;;;;;;;24.60;12.52;;;;;;;6.94;100.00;97417.53;5022179;28;20478;-60
2023/01/23 11:41:47;;;;;;;24.80;14.23;;;;;;;8.03;100.00;97408.53;5030255;28;20482;-57
2023/01/23 11:44:17;;;;;;;26.27;14.25;;;;;;;7.45;100.00;97408.06;5030282;28;20099;-60